sensor_id;sensor_type;location;lat;lon;timestamp;pressure;altitude;pressure_sealevel;temperature;humidity
41467;BME280;27205;53.690;19.948;2022-10-16T00:03:11;99838.02;;;14.78;87.57
41467;BME280;27205;53.690;19.948;2022-10-16T00:08:14;99842.44;;;14.77;87.54
41467;BME280;27205;53.690;19.948;2022-10-16T00:13:17;99847.13;;;14.75;87.77
41467;BME280;27205;53.690;19.948;2022-10-16T00:18:23;99849.39;;;14.74;87.87
41467;BME280;27205;53.690;19.948;2022-10-16T00:23:26;99844.30;;;14.72;88.01
41467;BME280;27205;53.690;19.948;2022-10-16T00:28:30;99831.19;;;14.72;88.02
41467;BME280;27205;53.690;19.948;2022-10-16T00:33:33;99834.33;;;14.73;88.05
41467;BME280;27205;53.690;19.948;2022-10-16T00:38:36;99845.31;;;14.74;88.17
41467;BME280;27205;53.690;19.948;2022-10-16T00:43:55;99846.88;;;14.73;88.28
41467;BME280;27205;53.690;19.948;2022-10-16T00:54:19;99845.87;;;14.78;88.39
41467;BME280;27205;53.690;19.948;2022-10-16T00:59:32;99850.30;;;14.79;88.33
41467;BME280;27205;53.690;19.948;2022-10-16T01:04:49;99856.61;;;14.79;88.43
41467;BME280;27205;53.690;19.948;2022-10-16T01:20:37;99863.82;;;14.80;88.82
41467;BME280;27205;53.690;19.948;2022-10-16T01:31:39;99869.72;;;14.81;88.82
41467;BME280;27205;53.690;19.948;2022-10-16T01:37:08;99874.27;;;14.83;88.76
41467;BME280;27205;53.690;19.948;2022-10-16T01:42:21;99870.48;;;14.85;88.72
41467;BME280;27205;53.690;19.948;2022-10-16T01:47:27;99860.75;;;14.84;88.87
41467;BME280;27205;53.690;19.948;2022-10-16T01:52:37;99852.63;;;14.81;89.07
41467;BME280;27205;53.690;19.948;2022-10-16T01:57:45;99848.30;;;14.79;89.12
41467;BME280;27205;53.690;19.948;2022-10-16T02:02:53;99850.61;;;14.79;89.13
41467;BME280;27205;53.690;19.948;2022-10-16T02:07:58;99849.26;;;14.80;89.11
41467;BME280;27205;53.690;19.948;2022-10-16T02:13:11;99844.41;;;14.78;89.00
41467;BME280;27205;53.690;19.948;2022-10-16T02:18:16;99844.20;;;14.74;89.04
41467;BME280;27205;53.690;19.948;2022-10-16T02:28:56;99862.13;;;14.69;89.20
41467;BME280;27205;53.690;19.948;2022-10-16T02:34:03;99868.43;;;14.70;89.13
41467;BME280;27205;53.690;19.948;2022-10-16T02:39:09;99871.45;;;14.70;88.99
41467;BME280;27205;53.690;19.948;2022-10-16T02:44:13;99878.80;;;14.69;89.02
41467;BME280;27205;53.690;19.948;2022-10-16T02:49:16;99878.67;;;14.71;89.18
41467;BME280;27205;53.690;19.948;2022-10-16T02:54:21;99878.81;;;14.71;89.13
41467;BME280;27205;53.690;19.948;2022-10-16T02:59:24;99874.59;;;14.70;89.11
41467;BME280;27205;53.690;19.948;2022-10-16T03:04:27;99882.75;;;14.70;89.08
41467;BME280;27205;53.690;19.948;2022-10-16T03:09:30;99888.65;;;14.71;89.22
41467;BME280;27205;53.690;19.948;2022-10-16T03:14:33;99882.80;;;14.72;89.14
41467;BME280;27205;53.690;19.948;2022-10-16T03:19:37;99881.30;;;14.74;89.28
41467;BME280;27205;53.690;19.948;2022-10-16T03:24:40;99882.52;;;14.78;89.15
41467;BME280;27205;53.690;19.948;2022-10-16T03:29:43;99882.36;;;14.76;89.31
41467;BME280;27205;53.690;19.948;2022-10-16T03:34:46;99890.94;;;14.67;89.14
41467;BME280;27205;53.690;19.948;2022-10-16T03:39:50;99898.97;;;14.54;89.01
41467;BME280;27205;53.690;19.948;2022-10-16T03:44:53;99897.59;;;14.40;89.14
41467;BME280;27205;53.690;19.948;2022-10-16T03:49:56;99898.63;;;14.29;89.11
41467;BME280;27205;53.690;19.948;2022-10-16T03:54:59;99897.77;;;14.19;88.90
41467;BME280;27205;53.690;19.948;2022-10-16T04:00:03;99900.65;;;14.08;88.79
41467;BME280;27205;53.690;19.948;2022-10-16T04:05:07;99901.53;;;13.96;88.75
41467;BME280;27205;53.690;19.948;2022-10-16T04:10:10;99896.48;;;13.88;88.79
41467;BME280;27205;53.690;19.948;2022-10-16T04:15:13;99897.52;;;13.75;88.83
41467;BME280;27205;53.690;19.948;2022-10-16T04:20:17;99904.30;;;13.64;88.85
41467;BME280;27205;53.690;19.948;2022-10-16T04:25:21;99909.41;;;13.54;89.13
41467;BME280;27205;53.690;19.948;2022-10-16T04:30:24;99906.02;;;13.52;88.96
41467;BME280;27205;53.690;19.948;2022-10-16T04:35:27;99903.19;;;13.50;88.96
41467;BME280;27205;53.690;19.948;2022-10-16T04:40:31;99909.39;;;13.46;89.22
41467;BME280;27205;53.690;19.948;2022-10-16T04:45:39;99914.19;;;13.42;89.21
41467;BME280;27205;53.690;19.948;2022-10-16T04:50:42;99913.91;;;13.41;89.16
41467;BME280;27205;53.690;19.948;2022-10-16T04:55:45;99917.69;;;13.45;89.50
41467;BME280;27205;53.690;19.948;2022-10-16T05:00:49;99912.52;;;13.48;89.49
41467;BME280;27205;53.690;19.948;2022-10-16T05:05:52;99914.55;;;13.49;89.61
41467;BME280;27205;53.690;19.948;2022-10-16T05:10:55;99914.95;;;13.54;89.80
41467;BME280;27205;53.690;19.948;2022-10-16T05:15:58;99917.92;;;13.62;89.60
41467;BME280;27205;53.690;19.948;2022-10-16T05:21:02;99912.92;;;13.72;89.94
41467;BME280;27205;53.690;19.948;2022-10-16T05:26:05;99916.65;;;13.85;90.02
41467;BME280;27205;53.690;19.948;2022-10-16T05:31:09;99926.45;;;13.96;90.01
41467;BME280;27205;53.690;19.948;2022-10-16T05:36:12;99938.56;;;14.06;89.91
41467;BME280;27205;53.690;19.948;2022-10-16T05:41:16;99940.30;;;14.16;89.90
41467;BME280;27205;53.690;19.948;2022-10-16T05:46:24;99938.66;;;14.28;90.01
41467;BME280;27205;53.690;19.948;2022-10-16T05:51:27;99942.23;;;14.40;90.24
41467;BME280;27205;53.690;19.948;2022-10-16T05:56:30;99945.29;;;14.48;90.00
41467;BME280;27205;53.690;19.948;2022-10-16T06:01:34;99957.48;;;14.57;90.08
41467;BME280;27205;53.690;19.948;2022-10-16T06:06:38;99965.82;;;14.63;89.98
41467;BME280;27205;53.690;19.948;2022-10-16T06:11:41;99976.30;;;14.71;89.99
41467;BME280;27205;53.690;19.948;2022-10-16T06:16:44;99984.58;;;14.74;89.61
41467;BME280;27205;53.690;19.948;2022-10-16T06:21:47;99977.06;;;14.83;89.59
41467;BME280;27205;53.690;19.948;2022-10-16T06:26:50;99979.85;;;14.98;89.37
41467;BME280;27205;53.690;19.948;2022-10-16T06:31:54;99971.70;;;15.03;89.40
41467;BME280;27205;53.690;19.948;2022-10-16T06:36:57;99993.08;;;15.05;89.52
41467;BME280;27205;53.690;19.948;2022-10-16T06:42:01;99997.65;;;15.16;89.45
41467;BME280;27205;53.690;19.948;2022-10-16T06:47:06;99986.13;;;15.30;89.18
41467;BME280;27205;53.690;19.948;2022-10-16T06:52:09;99990.41;;;15.47;89.27
41467;BME280;27205;53.690;19.948;2022-10-16T06:57:12;99994.27;;;15.66;89.07
41467;BME280;27205;53.690;19.948;2022-10-16T07:02:16;99997.02;;;15.77;88.85
41467;BME280;27205;53.690;19.948;2022-10-16T07:07:19;100003.25;;;15.92;88.97
41467;BME280;27205;53.690;19.948;2022-10-16T07:12:22;100002.18;;;16.07;88.47
41467;BME280;27205;53.690;19.948;2022-10-16T07:17:26;100002.23;;;16.16;88.65
41467;BME280;27205;53.690;19.948;2022-10-16T07:22:29;100017.89;;;16.23;88.70
41467;BME280;27205;53.690;19.948;2022-10-16T07:27:32;100032.70;;;16.30;88.39
41467;BME280;27205;53.690;19.948;2022-10-16T07:32:36;100034.48;;;16.42;88.47
41467;BME280;27205;53.690;19.948;2022-10-16T07:37:44;100028.80;;;16.62;88.16
41467;BME280;27205;53.690;19.948;2022-10-16T07:42:48;100027.21;;;16.67;87.87
41467;BME280;27205;53.690;19.948;2022-10-16T07:47:51;100032.97;;;16.69;87.59
41467;BME280;27205;53.690;19.948;2022-10-16T07:52:54;100034.08;;;16.72;87.25
41467;BME280;27205;53.690;19.948;2022-10-16T07:57:57;100039.23;;;16.72;86.87
41467;BME280;27205;53.690;19.948;2022-10-16T08:03:01;100040.25;;;16.73;86.78
41467;BME280;27205;53.690;19.948;2022-10-16T08:08:04;100051.63;;;16.73;86.63
41467;BME280;27205;53.690;19.948;2022-10-16T08:13:07;100058.73;;;16.77;86.43
41467;BME280;27205;53.690;19.948;2022-10-16T08:18:13;100055.58;;;16.87;85.98
41467;BME280;27205;53.690;19.948;2022-10-16T08:23:16;100055.19;;;17.15;85.97
41467;BME280;27205;53.690;19.948;2022-10-16T08:28:19;100060.39;;;17.36;86.00
41467;BME280;27205;53.690;19.948;2022-10-16T08:33:23;100060.42;;;17.51;85.73
41467;BME280;27205;53.690;19.948;2022-10-16T08:38:26;100066.14;;;17.70;85.80
41467;BME280;27205;53.690;19.948;2022-10-16T08:48:57;100083.21;;;17.96;85.07
41467;BME280;27205;53.690;19.948;2022-10-16T08:54:21;100079.52;;;18.17;85.07
41467;BME280;27205;53.690;19.948;2022-10-16T08:59:26;100084.88;;;18.36;84.73
41467;BME280;27205;53.690;19.948;2022-10-16T09:10:31;100083.34;;;18.69;84.56
41467;BME280;27205;53.690;19.948;2022-10-16T09:15:45;100090.23;;;18.81;84.20
41467;BME280;27205;53.690;19.948;2022-10-16T09:26:14;100086.19;;;18.65;83.20
41467;BME280;27205;53.690;19.948;2022-10-16T09:31:21;100088.83;;;18.53;83.10
41467;BME280;27205;53.690;19.948;2022-10-16T09:36:25;100090.40;;;18.47;83.11
41467;BME280;27205;53.690;19.948;2022-10-16T09:41:30;100091.20;;;18.47;83.05
41467;BME280;27205;53.690;19.948;2022-10-16T09:46:34;100093.04;;;18.46;82.90
41467;BME280;27205;53.690;19.948;2022-10-16T09:51:38;100088.85;;;18.45;82.95
41467;BME280;27205;53.690;19.948;2022-10-16T09:56:42;100082.15;;;18.63;83.06
41467;BME280;27205;53.690;19.948;2022-10-16T10:01:53;100098.02;;;18.91;82.75
41467;BME280;27205;53.690;19.948;2022-10-16T10:06:56;100100.64;;;18.92;82.49
41467;BME280;27205;53.690;19.948;2022-10-16T10:12:04;100103.08;;;18.81;82.17
41467;BME280;27205;53.690;19.948;2022-10-16T10:38:56;100116.48;;;20.23;80.87
41467;BME280;27205;53.690;19.948;2022-10-16T11:11:00;100120.09;;;21.24;77.86
41467;BME280;27205;53.690;19.948;2022-10-16T11:16:19;100116.11;;;21.12;77.38
41467;BME280;27205;53.690;19.948;2022-10-16T11:21:26;100115.69;;;20.75;76.87
41467;BME280;27205;53.690;19.948;2022-10-16T11:26:39;100119.05;;;20.41;76.90
41467;BME280;27205;53.690;19.948;2022-10-16T11:31:50;100113.65;;;20.05;76.92
41467;BME280;27205;53.690;19.948;2022-10-16T11:37:02;100117.38;;;19.96;76.84
41467;BME280;27205;53.690;19.948;2022-10-16T11:42:25;100120.38;;;20.21;76.91
41467;BME280;27205;53.690;19.948;2022-10-16T11:58:31;100113.68;;;21.70;76.24
41467;BME280;27205;53.690;19.948;2022-10-16T12:09:14;100118.55;;;21.94;75.15
41467;BME280;27205;53.690;19.948;2022-10-16T12:19:31;100127.48;;;20.94;74.65
41467;BME280;27205;53.690;19.948;2022-10-16T12:24:37;100126.41;;;21.14;74.57
41467;BME280;27205;53.690;19.948;2022-10-16T12:29:41;100119.55;;;21.39;74.45
41467;BME280;27205;53.690;19.948;2022-10-16T12:34:47;100120.24;;;21.58;74.09
41467;BME280;27205;53.690;19.948;2022-10-16T12:39:53;100122.89;;;21.45;73.68
41467;BME280;27205;53.690;19.948;2022-10-16T12:44:57;100124.48;;;21.08;73.92
41467;BME280;27205;53.690;19.948;2022-10-16T12:50:00;100134.34;;;20.89;74.24
41467;BME280;27205;53.690;19.948;2022-10-16T12:55:19;100138.65;;;20.77;74.25
41467;BME280;27205;53.690;19.948;2022-10-16T13:00:50;100134.61;;;20.63;74.32
41467;BME280;27205;53.690;19.948;2022-10-16T13:16:45;100137.42;;;20.71;74.57
41467;BME280;27205;53.690;19.948;2022-10-16T13:22:00;100147.09;;;20.78;74.56
41467;BME280;27205;53.690;19.948;2022-10-16T13:32:15;100161.67;;;20.51;74.64
41467;BME280;27205;53.690;19.948;2022-10-16T13:37:21;100161.29;;;20.30;74.67
41467;BME280;27205;53.690;19.948;2022-10-16T13:42:26;100168.42;;;20.08;74.87
41467;BME280;27205;53.690;19.948;2022-10-16T13:47:30;100170.80;;;19.92;75.16
41467;BME280;27205;53.690;19.948;2022-10-16T13:52:34;100185.02;;;19.79;75.20
41467;BME280;27205;53.690;19.948;2022-10-16T13:57:38;100181.09;;;19.73;75.21
41467;BME280;27205;53.690;19.948;2022-10-16T14:02:43;100182.05;;;19.69;75.26
41467;BME280;27205;53.690;19.948;2022-10-16T14:07:49;100173.05;;;19.66;75.41
41467;BME280;27205;53.690;19.948;2022-10-16T14:12:59;100171.42;;;19.71;75.54
41467;BME280;27205;53.690;19.948;2022-10-16T14:18:03;100176.73;;;19.69;75.46
41467;BME280;27205;53.690;19.948;2022-10-16T14:23:30;100177.41;;;19.55;75.64
41467;BME280;27205;53.690;19.948;2022-10-16T14:28:34;100179.26;;;19.43;75.92
41467;BME280;27205;53.690;19.948;2022-10-16T14:33:38;100185.93;;;19.38;75.99
41467;BME280;27205;53.690;19.948;2022-10-16T14:39:05;100187.95;;;19.34;76.12
41467;BME280;27205;53.690;19.948;2022-10-16T14:44:10;100193.59;;;19.33;76.14
41467;BME280;27205;53.690;19.948;2022-10-16T14:49:17;100202.61;;;19.25;76.36
41467;BME280;27205;53.690;19.948;2022-10-16T14:54:24;100210.34;;;19.25;76.39
41467;BME280;27205;53.690;19.948;2022-10-16T14:59:37;100217.37;;;19.17;76.55
41467;BME280;27205;53.690;19.948;2022-10-16T15:04:41;100223.61;;;19.08;76.69
41467;BME280;27205;53.690;19.948;2022-10-16T15:09:44;100221.71;;;18.92;77.02
41467;BME280;27205;53.690;19.948;2022-10-16T15:14:51;100223.34;;;18.79;77.21
41467;BME280;27205;53.690;19.948;2022-10-16T15:19:54;100228.80;;;18.81;77.48
41467;BME280;27205;53.690;19.948;2022-10-16T15:24:57;100233.92;;;19.14;77.41
41467;BME280;27205;53.690;19.948;2022-10-16T15:30:01;100233.88;;;19.32;77.35
41467;BME280;27205;53.690;19.948;2022-10-16T15:35:04;100241.73;;;19.18;77.37
41467;BME280;27205;53.690;19.948;2022-10-16T15:40:08;100246.86;;;19.01;77.46
41467;BME280;27205;53.690;19.948;2022-10-16T15:49:47;100246.98;;;18.74;77.76
41467;BME280;27205;53.690;19.948;2022-10-16T15:54:49;100244.98;;;18.53;77.93
41467;BME280;27205;53.690;19.948;2022-10-16T15:59:55;100249.54;;;18.37;78.07
41467;BME280;27205;53.690;19.948;2022-10-16T16:05:44;100257.12;;;18.21;78.15
41467;BME280;27205;53.690;19.948;2022-10-16T16:11:08;100263.12;;;17.99;78.39
41467;BME280;27205;53.690;19.948;2022-10-16T16:16:13;100268.61;;;17.81;78.61
41467;BME280;27205;53.690;19.948;2022-10-16T16:21:17;100277.36;;;17.62;78.58
41467;BME280;27205;53.690;19.948;2022-10-16T16:26:25;100279.34;;;17.43;78.81
41467;BME280;27205;53.690;19.948;2022-10-16T16:31:32;100277.23;;;17.22;79.25
41467;BME280;27205;53.690;19.948;2022-10-16T16:36:36;100286.90;;;17.07;79.33
41467;BME280;27205;53.690;19.948;2022-10-16T16:41:37;100300.55;;;16.92;79.56
41467;BME280;27205;53.690;19.948;2022-10-16T16:46:40;100301.09;;;16.77;79.80
41467;BME280;27205;53.690;19.948;2022-10-16T16:51:44;100303.70;;;16.66;80.02
41467;BME280;27205;53.690;19.948;2022-10-16T16:56:46;100308.03;;;16.61;80.05
41467;BME280;27205;53.690;19.948;2022-10-16T17:01:48;100306.33;;;16.46;80.64
41467;BME280;27205;53.690;19.948;2022-10-16T17:06:57;100318.55;;;16.32;81.17
41467;BME280;27205;53.690;19.948;2022-10-16T17:11:59;100320.10;;;16.20;81.43
41467;BME280;27205;53.690;19.948;2022-10-16T17:17:01;100322.98;;;16.11;81.61
41467;BME280;27205;53.690;19.948;2022-10-16T17:22:03;100320.05;;;16.02;82.02
41467;BME280;27205;53.690;19.948;2022-10-16T17:27:05;100329.61;;;15.93;82.30
41467;BME280;27205;53.690;19.948;2022-10-16T17:32:07;100333.66;;;15.87;82.71
41467;BME280;27205;53.690;19.948;2022-10-16T17:37:09;100337.62;;;15.80;82.91
41467;BME280;27205;53.690;19.948;2022-10-16T17:42:18;100347.67;;;15.74;83.33
41467;BME280;27205;53.690;19.948;2022-10-16T17:47:20;100359.81;;;15.70;83.44
41467;BME280;27205;53.690;19.948;2022-10-16T17:52:21;100364.54;;;15.68;84.05
41467;BME280;27205;53.690;19.948;2022-10-16T17:57:24;100368.07;;;15.67;84.17
41467;BME280;27205;53.690;19.948;2022-10-16T18:02:26;100373.23;;;15.69;84.60
41467;BME280;27205;53.690;19.948;2022-10-16T18:07:28;100371.63;;;15.70;85.00
41467;BME280;27205;53.690;19.948;2022-10-16T18:12:31;100379.61;;;15.70;85.30
41467;BME280;27205;53.690;19.948;2022-10-16T18:17:34;100380.48;;;15.73;85.56
41467;BME280;27205;53.690;19.948;2022-10-16T18:22:40;100392.44;;;15.70;85.70
41467;BME280;27205;53.690;19.948;2022-10-16T18:27:42;100391.73;;;15.65;86.06
41467;BME280;27205;53.690;19.948;2022-10-16T18:32:44;100399.33;;;15.61;86.19
41467;BME280;27205;53.690;19.948;2022-10-16T18:37:46;100398.13;;;15.57;86.39
41467;BME280;27205;53.690;19.948;2022-10-16T18:42:50;100405.71;;;15.53;86.59
41467;BME280;27205;53.690;19.948;2022-10-16T18:47:55;100405.92;;;15.46;86.99
41467;BME280;27205;53.690;19.948;2022-10-16T18:52:57;100415.36;;;15.41;87.32
41467;BME280;27205;53.690;19.948;2022-10-16T18:57:59;100421.45;;;15.40;87.51
41467;BME280;27205;53.690;19.948;2022-10-16T19:03:02;100427.71;;;15.40;87.84
41467;BME280;27205;53.690;19.948;2022-10-16T19:08:05;100434.54;;;15.46;88.32
41467;BME280;27205;53.690;19.948;2022-10-16T19:13:08;100437.65;;;15.56;88.57
41467;BME280;27205;53.690;19.948;2022-10-16T19:18:12;100453.03;;;15.66;88.55
41467;BME280;27205;53.690;19.948;2022-10-16T19:23:14;100456.45;;;15.71;88.51
41467;BME280;27205;53.690;19.948;2022-10-16T19:28:16;100468.73;;;15.71;88.57
41467;BME280;27205;53.690;19.948;2022-10-16T19:33:18;100468.89;;;15.65;88.93
41467;BME280;27205;53.690;19.948;2022-10-16T19:38:20;100472.55;;;15.58;88.92
41467;BME280;27205;53.690;19.948;2022-10-16T19:43:22;100479.80;;;15.50;89.30
41467;BME280;27205;53.690;19.948;2022-10-16T19:48:24;100474.15;;;15.41;89.35
41467;BME280;27205;53.690;19.948;2022-10-16T19:53:31;100475.58;;;15.32;89.61
41467;BME280;27205;53.690;19.948;2022-10-16T19:58:33;100493.96;;;15.26;89.92
41467;BME280;27205;53.690;19.948;2022-10-16T20:03:36;100506.45;;;15.21;90.22
41467;BME280;27205;53.690;19.948;2022-10-16T20:08:41;100508.15;;;15.11;90.22
41467;BME280;27205;53.690;19.948;2022-10-16T20:13:43;100517.26;;;15.04;90.68
41467;BME280;27205;53.690;19.948;2022-10-16T20:18:47;100517.91;;;15.00;90.72
41467;BME280;27205;53.690;19.948;2022-10-16T20:23:50;100526.86;;;14.95;90.97
41467;BME280;27205;53.690;19.948;2022-10-16T20:28:53;100533.68;;;14.91;91.18
41467;BME280;27205;53.690;19.948;2022-10-16T20:33:57;100534.67;;;14.85;91.62
41467;BME280;27205;53.690;19.948;2022-10-16T20:39:00;100533.73;;;14.76;91.64
41467;BME280;27205;53.690;19.948;2022-10-16T20:44:03;100540.41;;;14.67;91.39
41467;BME280;27205;53.690;19.948;2022-10-16T20:49:05;100539.37;;;14.61;91.84
41467;BME280;27205;53.690;19.948;2022-10-16T20:54:17;100541.33;;;14.54;92.10
41467;BME280;27205;53.690;19.948;2022-10-16T20:59:19;100544.66;;;14.47;92.08
41467;BME280;27205;53.690;19.948;2022-10-16T21:04:21;100555.78;;;14.39;91.79
41467;BME280;27205;53.690;19.948;2022-10-16T21:09:22;100560.28;;;14.31;92.05
41467;BME280;27205;53.690;19.948;2022-10-16T21:14:25;100558.79;;;14.25;92.29
41467;BME280;27205;53.690;19.948;2022-10-16T21:19:28;100573.66;;;14.20;92.48
41467;BME280;27205;53.690;19.948;2022-10-16T21:24:30;100581.08;;;14.10;92.53
41467;BME280;27205;53.690;19.948;2022-10-16T21:29:33;100589.48;;;14.02;92.56
41467;BME280;27205;53.690;19.948;2022-10-16T21:34:35;100592.39;;;13.95;92.92
41467;BME280;27205;53.690;19.948;2022-10-16T21:39:37;100599.54;;;13.87;92.93
41467;BME280;27205;53.690;19.948;2022-10-16T21:44:39;100610.42;;;13.82;92.98
41467;BME280;27205;53.690;19.948;2022-10-16T21:49:41;100624.02;;;13.79;93.29
41467;BME280;27205;53.690;19.948;2022-10-16T21:54:43;100633.27;;;13.73;92.93
41467;BME280;27205;53.690;19.948;2022-10-16T21:59:44;100640.52;;;13.71;92.99
41467;BME280;27205;53.690;19.948;2022-10-16T22:04:46;100644.97;;;13.65;93.09
41467;BME280;27205;53.690;19.948;2022-10-16T22:09:48;100654.00;;;13.58;93.35
41467;BME280;27205;53.690;19.948;2022-10-16T22:14:50;100655.08;;;13.53;93.09
41467;BME280;27205;53.690;19.948;2022-10-16T22:19:52;100656.51;;;13.48;93.18
41467;BME280;27205;53.690;19.948;2022-10-16T22:24:54;100661.64;;;13.44;93.16
41467;BME280;27205;53.690;19.948;2022-10-16T22:29:56;100666.03;;;13.40;93.44
41467;BME280;27205;53.690;19.948;2022-10-16T22:34:57;100664.89;;;13.35;93.65
41467;BME280;27205;53.690;19.948;2022-10-16T22:39:59;100673.53;;;13.28;93.72
41467;BME280;27205;53.690;19.948;2022-10-16T22:45:02;100674.03;;;13.23;93.69
41467;BME280;27205;53.690;19.948;2022-10-16T22:50:05;100675.63;;;13.18;93.77
41467;BME280;27205;53.690;19.948;2022-10-16T22:55:07;100677.94;;;13.13;93.59
41467;BME280;27205;53.690;19.948;2022-10-16T23:00:12;100682.23;;;13.10;94.12
41467;BME280;27205;53.690;19.948;2022-10-16T23:05:15;100686.43;;;13.06;93.87
41467;BME280;27205;53.690;19.948;2022-10-16T23:10:17;100689.57;;;13.03;94.05
41467;BME280;27205;53.690;19.948;2022-10-16T23:15:19;100698.20;;;13.02;94.07
41467;BME280;27205;53.690;19.948;2022-10-16T23:20:22;100708.88;;;12.96;94.16
41467;BME280;27205;53.690;19.948;2022-10-16T23:25:24;100715.40;;;12.90;94.17
41467;BME280;27205;53.690;19.948;2022-10-16T23:30:26;100719.67;;;12.85;94.27
41467;BME280;27205;53.690;19.948;2022-10-16T23:35:29;100724.10;;;12.81;94.17
41467;BME280;27205;53.690;19.948;2022-10-16T23:40:30;100719.70;;;12.77;94.40
41467;BME280;27205;53.690;19.948;2022-10-16T23:45:32;100710.15;;;12.75;94.52
41467;BME280;27205;53.690;19.948;2022-10-16T23:50:34;100722.61;;;12.76;94.80
41467;BME280;27205;53.690;19.948;2022-10-16T23:55:36;100727.67;;;12.72;94.63
